sensor_id;sensor_type;location;lat;lon;timestamp;temperature;humidity
50556;DHT22;36508;52.512;13.450;2023-02-28T00:00:59;3.60;99.90
50556;DHT22;36508;52.512;13.450;2023-02-28T00:03:28;3.60;99.90
50556;DHT22;36508;52.512;13.450;2023-02-28T00:05:54;3.60;99.90
50556;DHT22;36508;52.512;13.450;2023-02-28T00:08:19;3.70;99.90
50556;DHT22;36508;52.512;13.450;2023-02-28T00:10:45;3.70;99.90
50556;DHT22;36508;52.512;13.450;2023-02-28T00:13:11;3.70;99.90
50556;DHT22;36508;52.512;13.450;2023-02-28T00:15:42;3.70;99.90
50556;DHT22;36508;52.512;13.450;2023-02-28T00:18:13;3.70;99.90
50556;DHT22;36508;52.512;13.450;2023-02-28T00:20:39;3.70;99.90
50556;DHT22;36508;52.512;13.450;2023-02-28T00:23:14;3.60;99.90
50556;DHT22;36508;52.512;13.450;2023-02-28T00:25:40;3.60;99.90
50556;DHT22;36508;52.512;13.450;2023-02-28T00:28:14;3.60;99.90
50556;DHT22;36508;52.512;13.450;2023-02-28T00:30:44;3.70;99.90
50556;DHT22;36508;52.512;13.450;2023-02-28T00:33:10;3.70;99.90
50556;DHT22;36508;52.512;13.450;2023-02-28T00:35:36;3.50;99.90
50556;DHT22;36508;52.512;13.450;2023-02-28T00:38:07;3.50;99.90
50556;DHT22;36508;52.512;13.450;2023-02-28T00:40:35;3.50;99.90
50556;DHT22;36508;52.512;13.450;2023-02-28T00:43:01;3.50;99.90
50556;DHT22;36508;52.512;13.450;2023-02-28T00:45:30;3.50;99.90
50556;DHT22;36508;52.512;13.450;2023-02-28T00:47:59;3.50;99.90
50556;DHT22;36508;52.512;13.450;2023-02-28T00:50:25;3.60;99.90
50556;DHT22;36508;52.512;13.450;2023-02-28T00:52:51;3.60;99.90
50556;DHT22;36508;52.512;13.450;2023-02-28T00:55:17;3.60;99.90
50556;DHT22;36508;52.512;13.450;2023-02-28T00:57:44;3.60;99.90
50556;DHT22;36508;52.512;13.450;2023-02-28T01:00:10;3.70;99.90
50556;DHT22;36508;52.512;13.450;2023-02-28T01:02:39;3.60;99.90
50556;DHT22;36508;52.512;13.450;2023-02-28T01:05:10;3.60;99.90
50556;DHT22;36508;52.512;13.450;2023-02-28T01:07:36;3.50;99.90
50556;DHT22;36508;52.512;13.450;2023-02-28T01:10:13;3.50;99.90
50556;DHT22;36508;52.512;13.450;2023-02-28T01:12:42;3.50;99.90
50556;DHT22;36508;52.512;13.450;2023-02-28T01:15:10;3.50;99.90
50556;DHT22;36508;52.512;13.450;2023-02-28T01:17:36;3.50;99.90
50556;DHT22;36508;52.512;13.450;2023-02-28T01:20:06;3.50;99.90
50556;DHT22;36508;52.512;13.450;2023-02-28T01:22:40;3.50;99.90
50556;DHT22;36508;52.512;13.450;2023-02-28T01:25:06;3.40;99.90
50556;DHT22;36508;52.512;13.450;2023-02-28T01:27:33;3.40;99.90
50556;DHT22;36508;52.512;13.450;2023-02-28T01:29:59;3.30;99.90
50556;DHT22;36508;52.512;13.450;2023-02-28T01:32:31;3.30;99.90
50556;DHT22;36508;52.512;13.450;2023-02-28T01:34:59;3.20;99.90
50556;DHT22;36508;52.512;13.450;2023-02-28T01:37:25;3.20;99.90
50556;DHT22;36508;52.512;13.450;2023-02-28T01:39:52;3.10;99.90
50556;DHT22;36508;52.512;13.450;2023-02-28T01:42:18;2.90;99.90
50556;DHT22;36508;52.512;13.450;2023-02-28T01:45:17;2.90;99.90
50556;DHT22;36508;52.512;13.450;2023-02-28T01:47:44;2.80;99.90
50556;DHT22;36508;52.512;13.450;2023-02-28T01:50:28;2.90;99.90
50556;DHT22;36508;52.512;13.450;2023-02-28T01:53:00;2.90;99.90
50556;DHT22;36508;52.512;13.450;2023-02-28T01:55:31;2.70;99.90
50556;DHT22;36508;52.512;13.450;2023-02-28T01:58:02;2.70;99.90
50556;DHT22;36508;52.512;13.450;2023-02-28T02:00:30;2.60;99.90
50556;DHT22;36508;52.512;13.450;2023-02-28T02:03:08;2.60;99.90
50556;DHT22;36508;52.512;13.450;2023-02-28T02:05:38;2.70;99.90
50556;DHT22;36508;52.512;13.450;2023-02-28T02:08:10;2.40;99.90
50556;DHT22;36508;52.512;13.450;2023-02-28T02:10:41;2.40;99.90
50556;DHT22;36508;52.512;13.450;2023-02-28T02:15:44;2.40;99.90
50556;DHT22;36508;52.512;13.450;2023-02-28T02:18:43;2.20;99.90
50556;DHT22;36508;52.512;13.450;2023-02-28T02:33:19;2.20;99.90
50556;DHT22;36508;52.512;13.450;2023-02-28T02:39:12;2.00;99.90
50556;DHT22;36508;52.512;13.450;2023-02-28T02:41:53;1.90;99.90
50556;DHT22;36508;52.512;13.450;2023-02-28T02:44:35;1.90;99.90
50556;DHT22;36508;52.512;13.450;2023-02-28T02:47:11;1.90;99.90
50556;DHT22;36508;52.512;13.450;2023-02-28T02:49:45;1.80;99.90
50556;DHT22;36508;52.512;13.450;2023-02-28T02:52:18;1.90;99.90
50556;DHT22;36508;52.512;13.450;2023-02-28T02:54:49;1.80;99.90
50556;DHT22;36508;52.512;13.450;2023-02-28T02:57:38;1.80;99.90
50556;DHT22;36508;52.512;13.450;2023-02-28T03:00:09;1.70;99.90
50556;DHT22;36508;52.512;13.450;2023-02-28T03:02:37;1.70;99.90
50556;DHT22;36508;52.512;13.450;2023-02-28T03:05:09;1.80;99.90
50556;DHT22;36508;52.512;13.450;2023-02-28T03:07:38;1.70;99.90
50556;DHT22;36508;52.512;13.450;2023-02-28T03:10:27;1.70;99.90
50556;DHT22;36508;52.512;13.450;2023-02-28T03:13:09;1.70;99.90
50556;DHT22;36508;52.512;13.450;2023-02-28T03:24:54;1.60;99.90
50556;DHT22;36508;52.512;13.450;2023-02-28T03:27:39;1.60;99.90
50556;DHT22;36508;52.512;13.450;2023-02-28T03:30:19;1.60;99.90
50556;DHT22;36508;52.512;13.450;2023-02-28T03:35:47;1.60;99.90
50556;DHT22;36508;52.512;13.450;2023-02-28T03:41:17;1.60;99.90
50556;DHT22;36508;52.512;13.450;2023-02-28T03:43:57;1.40;99.90
50556;DHT22;36508;52.512;13.450;2023-02-28T03:46:27;1.50;99.90
50556;DHT22;36508;52.512;13.450;2023-02-28T03:49:02;1.40;99.90
50556;DHT22;36508;52.512;13.450;2023-02-28T03:51:32;1.30;99.90
50556;DHT22;36508;52.512;13.450;2023-02-28T03:54:05;1.20;99.90
50556;DHT22;36508;52.512;13.450;2023-02-28T03:59:36;1.10;99.90
50556;DHT22;36508;52.512;13.450;2023-02-28T04:02:06;1.10;99.90
50556;DHT22;36508;52.512;13.450;2023-02-28T04:04:33;1.10;99.90
50556;DHT22;36508;52.512;13.450;2023-02-28T04:07:14;1.00;99.90
50556;DHT22;36508;52.512;13.450;2023-02-28T04:09:41;1.00;99.90
50556;DHT22;36508;52.512;13.450;2023-02-28T04:12:07;1.10;99.90
50556;DHT22;36508;52.512;13.450;2023-02-28T04:14:33;0.90;99.90
50556;DHT22;36508;52.512;13.450;2023-02-28T04:16:59;0.90;99.90
50556;DHT22;36508;52.512;13.450;2023-02-28T04:19:25;0.90;99.90
50556;DHT22;36508;52.512;13.450;2023-02-28T04:21:52;0.80;99.90
50556;DHT22;36508;52.512;13.450;2023-02-28T04:24:21;0.80;99.90
50556;DHT22;36508;52.512;13.450;2023-02-28T04:27:08;0.90;99.90
50556;DHT22;36508;52.512;13.450;2023-02-28T04:29:43;0.90;99.90
50556;DHT22;36508;52.512;13.450;2023-02-28T04:32:10;0.80;99.90
50556;DHT22;36508;52.512;13.450;2023-02-28T04:34:39;0.80;99.90
50556;DHT22;36508;52.512;13.450;2023-02-28T04:37:07;0.90;99.90
50556;DHT22;36508;52.512;13.450;2023-02-28T04:39:36;0.90;99.90
50556;DHT22;36508;52.512;13.450;2023-02-28T04:42:02;0.80;99.90
50556;DHT22;36508;52.512;13.450;2023-02-28T04:44:34;0.90;99.90
50556;DHT22;36508;52.512;13.450;2023-02-28T04:47:00;0.80;99.90
50556;DHT22;36508;52.512;13.450;2023-02-28T04:49:29;0.80;99.90
50556;DHT22;36508;52.512;13.450;2023-02-28T04:51:55;0.90;99.90
50556;DHT22;36508;52.512;13.450;2023-02-28T04:54:27;0.80;99.90
50556;DHT22;36508;52.512;13.450;2023-02-28T04:56:56;0.80;99.90
50556;DHT22;36508;52.512;13.450;2023-02-28T04:59:22;0.70;99.90
50556;DHT22;36508;52.512;13.450;2023-02-28T05:01:49;0.70;99.90
50556;DHT22;36508;52.512;13.450;2023-02-28T05:04:15;0.60;99.90
50556;DHT22;36508;52.512;13.450;2023-02-28T05:06:41;0.70;99.90
50556;DHT22;36508;52.512;13.450;2023-02-28T05:09:09;0.70;99.90
50556;DHT22;36508;52.512;13.450;2023-02-28T05:11:56;0.70;99.90
50556;DHT22;36508;52.512;13.450;2023-02-28T05:14:23;0.60;99.90
50556;DHT22;36508;52.512;13.450;2023-02-28T05:16:54;0.60;99.90
50556;DHT22;36508;52.512;13.450;2023-02-28T05:19:22;0.60;99.90
50556;DHT22;36508;52.512;13.450;2023-02-28T05:21:55;0.60;99.90
50556;DHT22;36508;52.512;13.450;2023-02-28T05:24:24;0.70;99.90
50556;DHT22;36508;52.512;13.450;2023-02-28T05:26:54;0.50;99.90
50556;DHT22;36508;52.512;13.450;2023-02-28T05:29:23;0.60;99.90
50556;DHT22;36508;52.512;13.450;2023-02-28T05:31:49;0.60;99.90
50556;DHT22;36508;52.512;13.450;2023-02-28T05:34:15;0.70;99.90
50556;DHT22;36508;52.512;13.450;2023-02-28T05:36:44;0.60;99.90
50556;DHT22;36508;52.512;13.450;2023-02-28T05:39:10;0.50;99.90
50556;DHT22;36508;52.512;13.450;2023-02-28T05:41:44;0.50;99.90
50556;DHT22;36508;52.512;13.450;2023-02-28T05:44:10;0.50;99.90
50556;DHT22;36508;52.512;13.450;2023-02-28T05:46:36;0.50;99.90
50556;DHT22;36508;52.512;13.450;2023-02-28T05:49:02;0.50;99.90
50556;DHT22;36508;52.512;13.450;2023-02-28T05:51:31;0.50;99.90
50556;DHT22;36508;52.512;13.450;2023-02-28T05:54:07;0.60;99.90
50556;DHT22;36508;52.512;13.450;2023-02-28T05:56:33;0.60;99.90
50556;DHT22;36508;52.512;13.450;2023-02-28T05:59:01;0.40;99.90
50556;DHT22;36508;52.512;13.450;2023-02-28T06:01:34;0.40;99.90
50556;DHT22;36508;52.512;13.450;2023-02-28T06:04:01;0.40;99.90
50556;DHT22;36508;52.512;13.450;2023-02-28T06:06:27;0.40;99.90
50556;DHT22;36508;52.512;13.450;2023-02-28T06:08:59;0.40;99.90
50556;DHT22;36508;52.512;13.450;2023-02-28T06:11:27;0.40;99.90
50556;DHT22;36508;52.512;13.450;2023-02-28T06:13:57;0.40;99.90
50556;DHT22;36508;52.512;13.450;2023-02-28T06:16:28;0.40;99.90
50556;DHT22;36508;52.512;13.450;2023-02-28T06:18:58;0.50;99.90
50556;DHT22;36508;52.512;13.450;2023-02-28T06:21:24;0.50;99.90
50556;DHT22;36508;52.512;13.450;2023-02-28T06:23:52;0.50;99.90
50556;DHT22;36508;52.512;13.450;2023-02-28T06:26:19;0.60;99.90
50556;DHT22;36508;52.512;13.450;2023-02-28T06:28:46;0.60;99.90
50556;DHT22;36508;52.512;13.450;2023-02-28T06:31:16;0.60;99.90
50556;DHT22;36508;52.512;13.450;2023-02-28T06:33:46;0.50;99.90
50556;DHT22;36508;52.512;13.450;2023-02-28T06:36:18;0.60;99.90
50556;DHT22;36508;52.512;13.450;2023-02-28T06:38:47;0.70;99.90
50556;DHT22;36508;52.512;13.450;2023-02-28T06:41:24;0.80;99.90
50556;DHT22;36508;52.512;13.450;2023-02-28T06:43:56;0.80;99.90
50556;DHT22;36508;52.512;13.450;2023-02-28T06:46:25;0.80;99.90
50556;DHT22;36508;52.512;13.450;2023-02-28T06:48:54;0.80;99.90
50556;DHT22;36508;52.512;13.450;2023-02-28T06:51:20;0.80;99.90
50556;DHT22;36508;52.512;13.450;2023-02-28T06:53:48;1.00;99.90
50556;DHT22;36508;52.512;13.450;2023-02-28T06:56:23;1.00;99.90
50556;DHT22;36508;52.512;13.450;2023-02-28T06:58:50;1.00;99.90
50556;DHT22;36508;52.512;13.450;2023-02-28T07:01:18;1.00;99.90
50556;DHT22;36508;52.512;13.450;2023-02-28T07:03:49;1.10;99.90
50556;DHT22;36508;52.512;13.450;2023-02-28T07:06:20;1.10;99.90
50556;DHT22;36508;52.512;13.450;2023-02-28T07:08:51;1.20;99.90
50556;DHT22;36508;52.512;13.450;2023-02-28T07:11:25;1.20;99.90
50556;DHT22;36508;52.512;13.450;2023-02-28T07:13:55;1.20;99.90
50556;DHT22;36508;52.512;13.450;2023-02-28T07:16:22;1.10;99.90
50556;DHT22;36508;52.512;13.450;2023-02-28T07:18:53;1.20;99.90
50556;DHT22;36508;52.512;13.450;2023-02-28T07:21:19;1.30;99.90
50556;DHT22;36508;52.512;13.450;2023-02-28T07:23:44;1.40;99.90
50556;DHT22;36508;52.512;13.450;2023-02-28T07:26:12;1.50;99.90
50556;DHT22;36508;52.512;13.450;2023-02-28T07:28:40;1.60;99.90
50556;DHT22;36508;52.512;13.450;2023-02-28T07:31:16;1.50;99.90
50556;DHT22;36508;52.512;13.450;2023-02-28T07:33:46;1.60;99.90
50556;DHT22;36508;52.512;13.450;2023-02-28T07:36:16;1.80;99.90
50556;DHT22;36508;52.512;13.450;2023-02-28T07:38:46;1.80;99.90
50556;DHT22;36508;52.512;13.450;2023-02-28T07:41:20;1.70;99.90
50556;DHT22;36508;52.512;13.450;2023-02-28T07:43:48;1.60;99.90
50556;DHT22;36508;52.512;13.450;2023-02-28T07:46:15;1.60;99.90
50556;DHT22;36508;52.512;13.450;2023-02-28T07:48:48;1.70;99.90
50556;DHT22;36508;52.512;13.450;2023-02-28T07:51:13;1.80;99.90
50556;DHT22;36508;52.512;13.450;2023-02-28T07:53:43;2.00;99.90
50556;DHT22;36508;52.512;13.450;2023-02-28T07:56:13;2.10;99.90
50556;DHT22;36508;52.512;13.450;2023-02-28T07:58:42;2.30;99.90
50556;DHT22;36508;52.512;13.450;2023-02-28T08:01:14;2.50;99.90
50556;DHT22;36508;52.512;13.450;2023-02-28T08:03:48;2.50;99.90
50556;DHT22;36508;52.512;13.450;2023-02-28T08:06:21;2.60;99.90
50556;DHT22;36508;52.512;13.450;2023-02-28T08:08:53;2.60;99.90
50556;DHT22;36508;52.512;13.450;2023-02-28T08:11:25;2.60;99.90
50556;DHT22;36508;52.512;13.450;2023-02-28T08:13:51;2.50;99.90
50556;DHT22;36508;52.512;13.450;2023-02-28T08:16:20;2.60;99.90
50556;DHT22;36508;52.512;13.450;2023-02-28T08:18:51;2.70;99.90
50556;DHT22;36508;52.512;13.450;2023-02-28T08:21:20;2.70;99.90
50556;DHT22;36508;52.512;13.450;2023-02-28T08:23:51;2.80;99.90
50556;DHT22;36508;52.512;13.450;2023-02-28T08:26:18;2.70;99.90
50556;DHT22;36508;52.512;13.450;2023-02-28T08:28:48;2.80;99.90
50556;DHT22;36508;52.512;13.450;2023-02-28T08:31:17;2.90;99.90
50556;DHT22;36508;52.512;13.450;2023-02-28T08:33:46;2.90;99.90
50556;DHT22;36508;52.512;13.450;2023-02-28T08:36:15;3.00;99.90
50556;DHT22;36508;52.512;13.450;2023-02-28T08:38:41;3.00;99.90
50556;DHT22;36508;52.512;13.450;2023-02-28T08:41:10;3.00;99.90
50556;DHT22;36508;52.512;13.450;2023-02-28T08:43:40;3.20;99.90
50556;DHT22;36508;52.512;13.450;2023-02-28T08:46:08;3.10;99.90
50556;DHT22;36508;52.512;13.450;2023-02-28T08:48:36;3.10;99.90
50556;DHT22;36508;52.512;13.450;2023-02-28T08:51:12;3.10;99.90
50556;DHT22;36508;52.512;13.450;2023-02-28T08:53:50;3.20;99.90
50556;DHT22;36508;52.512;13.450;2023-02-28T08:56:17;3.30;99.90
50556;DHT22;36508;52.512;13.450;2023-02-28T08:58:47;3.30;99.90
50556;DHT22;36508;52.512;13.450;2023-02-28T09:01:19;3.40;99.90
50556;DHT22;36508;52.512;13.450;2023-02-28T09:03:49;3.60;99.90
50556;DHT22;36508;52.512;13.450;2023-02-28T09:06:21;3.60;99.90
50556;DHT22;36508;52.512;13.450;2023-02-28T09:08:50;3.60;99.90
50556;DHT22;36508;52.512;13.450;2023-02-28T09:11:16;3.70;99.90
50556;DHT22;36508;52.512;13.450;2023-02-28T09:13:42;3.70;99.90
50556;DHT22;36508;52.512;13.450;2023-02-28T09:16:13;3.80;99.90
50556;DHT22;36508;52.512;13.450;2023-02-28T09:18:40;3.80;99.90
50556;DHT22;36508;52.512;13.450;2023-02-28T09:21:11;3.80;99.90
50556;DHT22;36508;52.512;13.450;2023-02-28T09:23:40;3.80;99.90
50556;DHT22;36508;52.512;13.450;2023-02-28T09:26:07;3.90;99.90
50556;DHT22;36508;52.512;13.450;2023-02-28T09:28:34;3.90;99.90
50556;DHT22;36508;52.512;13.450;2023-02-28T09:31:01;4.00;99.90
50556;DHT22;36508;52.512;13.450;2023-02-28T09:33:30;4.10;99.90
50556;DHT22;36508;52.512;13.450;2023-02-28T09:36:01;4.20;99.90
50556;DHT22;36508;52.512;13.450;2023-02-28T09:38:29;4.20;99.90
50556;DHT22;36508;52.512;13.450;2023-02-28T09:41:24;4.30;99.90
50556;DHT22;36508;52.512;13.450;2023-02-28T09:43:55;4.30;99.90
50556;DHT22;36508;52.512;13.450;2023-02-28T09:46:35;4.40;99.90
50556;DHT22;36508;52.512;13.450;2023-02-28T09:49:15;4.40;99.90
50556;DHT22;36508;52.512;13.450;2023-02-28T09:52:02;4.40;99.90
50556;DHT22;36508;52.512;13.450;2023-02-28T09:54:31;4.50;99.90
50556;DHT22;36508;52.512;13.450;2023-02-28T09:57:21;4.50;99.90
50556;DHT22;36508;52.512;13.450;2023-02-28T10:06:16;4.80;99.90
50556;DHT22;36508;52.512;13.450;2023-02-28T10:09:04;4.90;99.90
50556;DHT22;36508;52.512;13.450;2023-02-28T10:11:36;5.00;99.90
50556;DHT22;36508;52.512;13.450;2023-02-28T10:14:14;5.00;99.90
50556;DHT22;36508;52.512;13.450;2023-02-28T10:17:47;5.00;99.90
50556;DHT22;36508;52.512;13.450;2023-02-28T10:22:57;5.30;99.90
50556;DHT22;36508;52.512;13.450;2023-02-28T10:25:27;5.50;99.90
50556;DHT22;36508;52.512;13.450;2023-02-28T10:27:56;5.70;99.90
50556;DHT22;36508;52.512;13.450;2023-02-28T10:30:24;5.80;99.90
50556;DHT22;36508;52.512;13.450;2023-02-28T10:32:52;6.10;99.90
50556;DHT22;36508;52.512;13.450;2023-02-28T10:35:24;6.50;99.90
50556;DHT22;36508;52.512;13.450;2023-02-28T10:37:59;8.60;99.90
50556;DHT22;36508;52.512;13.450;2023-02-28T10:40:34;12.00;95.60
50556;DHT22;36508;52.512;13.450;2023-02-28T10:43:04;14.20;85.30
50556;DHT22;36508;52.512;13.450;2023-02-28T10:45:35;16.30;74.30
50556;DHT22;36508;52.512;13.450;2023-02-28T10:48:29;17.90;64.70
50556;DHT22;36508;52.512;13.450;2023-02-28T10:50:58;19.20;60.00
50556;DHT22;36508;52.512;13.450;2023-02-28T10:53:55;20.50;56.20
50556;DHT22;36508;52.512;13.450;2023-02-28T10:56:23;21.70;50.80
50556;DHT22;36508;52.512;13.450;2023-02-28T11:01:48;20.60;46.90
50556;DHT22;36508;52.512;13.450;2023-02-28T11:04:35;20.80;46.50
50556;DHT22;36508;52.512;13.450;2023-02-28T11:07:16;21.40;45.30
50556;DHT22;36508;52.512;13.450;2023-02-28T11:09:46;19.90;43.50
50556;DHT22;36508;52.512;13.450;2023-02-28T11:12:28;18.20;47.20
50556;DHT22;36508;52.512;13.450;2023-02-28T11:15:04;19.10;46.70
50556;DHT22;36508;52.512;13.450;2023-02-28T11:17:32;21.20;45.50
50556;DHT22;36508;52.512;13.450;2023-02-28T11:20:03;21.00;44.20
50556;DHT22;36508;52.512;13.450;2023-02-28T11:22:32;21.40;44.40
50556;DHT22;36508;52.512;13.450;2023-02-28T11:25:13;21.20;44.20
50556;DHT22;36508;52.512;13.450;2023-02-28T11:27:50;21.50;44.50
50556;DHT22;36508;52.512;13.450;2023-02-28T11:30:31;22.20;42.80
50556;DHT22;36508;52.512;13.450;2023-02-28T11:32:58;22.00;43.70
50556;DHT22;36508;52.512;13.450;2023-02-28T11:35:28;21.20;42.10
50556;DHT22;36508;52.512;13.450;2023-02-28T12:50:52;20.20;36.20
50556;DHT22;36508;52.512;13.450;2023-02-28T12:58:39;22.20;37.10
50556;DHT22;36508;52.512;13.450;2023-02-28T13:07:05;21.40;37.20
50556;DHT22;36508;52.512;13.450;2023-02-28T13:09:33;20.20;36.60
50556;DHT22;36508;52.512;13.450;2023-02-28T13:12:00;19.80;37.70
50556;DHT22;36508;52.512;13.450;2023-02-28T13:14:36;20.30;38.40
50556;DHT22;36508;52.512;13.450;2023-02-28T13:19:45;20.90;38.00
50556;DHT22;36508;52.512;13.450;2023-02-28T13:27:55;22.20;36.70
50556;DHT22;36508;52.512;13.450;2023-02-28T13:33:30;21.30;36.00
50556;DHT22;36508;52.512;13.450;2023-02-28T13:38:57;20.80;37.80
50556;DHT22;36508;52.512;13.450;2023-02-28T13:44:24;22.20;37.30
50556;DHT22;36508;52.512;13.450;2023-02-28T13:54:52;19.10;37.70
50556;DHT22;36508;52.512;13.450;2023-02-28T14:00:28;17.10;39.00
50556;DHT22;36508;52.512;13.450;2023-02-28T14:03:29;16.50;39.80
50556;DHT22;36508;52.512;13.450;2023-02-28T14:11:31;16.60;40.90
50556;DHT22;36508;52.512;13.450;2023-02-28T14:13:59;17.90;40.30
50556;DHT22;36508;52.512;13.450;2023-02-28T14:16:27;19.00;39.70
50556;DHT22;36508;52.512;13.450;2023-02-28T14:19:02;18.20;39.70
50556;DHT22;36508;52.512;13.450;2023-02-28T14:21:34;19.10;38.90
50556;DHT22;36508;52.512;13.450;2023-02-28T14:24:30;19.90;38.10
50556;DHT22;36508;52.512;13.450;2023-02-28T14:40:29;21.40;37.70
50556;DHT22;36508;52.512;13.450;2023-02-28T14:43:05;22.60;36.10
50556;DHT22;36508;52.512;13.450;2023-02-28T14:45:36;22.20;36.00
50556;DHT22;36508;52.512;13.450;2023-02-28T14:48:05;21.60;36.10
50556;DHT22;36508;52.512;13.450;2023-02-28T14:50:36;21.30;36.90
50556;DHT22;36508;52.512;13.450;2023-02-28T14:53:03;21.50;36.70
50556;DHT22;36508;52.512;13.450;2023-02-28T14:55:32;21.70;36.30
50556;DHT22;36508;52.512;13.450;2023-02-28T14:58:02;20.50;35.10
50556;DHT22;36508;52.512;13.450;2023-02-28T15:00:48;19.20;37.20
50556;DHT22;36508;52.512;13.450;2023-02-28T15:03:23;18.10;38.40
50556;DHT22;36508;52.512;13.450;2023-02-28T15:06:00;16.50;38.70
50556;DHT22;36508;52.512;13.450;2023-02-28T15:08:27;14.90;40.20
50556;DHT22;36508;52.512;13.450;2023-02-28T15:13:44;12.40;43.40
50556;DHT22;36508;52.512;13.450;2023-02-28T15:16:53;11.70;44.60
50556;DHT22;36508;52.512;13.450;2023-02-28T15:19:24;11.10;45.40
50556;DHT22;36508;52.512;13.450;2023-02-28T15:22:06;10.50;46.20
50556;DHT22;36508;52.512;13.450;2023-02-28T15:24:42;9.90;48.40
50556;DHT22;36508;52.512;13.450;2023-02-28T15:27:30;9.60;49.70
50556;DHT22;36508;52.512;13.450;2023-02-28T15:30:06;9.20;50.20
50556;DHT22;36508;52.512;13.450;2023-02-28T15:32:35;9.10;50.40
50556;DHT22;36508;52.512;13.450;2023-02-28T15:38:00;9.00;51.50
50556;DHT22;36508;52.512;13.450;2023-02-28T15:40:30;8.90;51.40
50556;DHT22;36508;52.512;13.450;2023-02-28T15:45:35;8.80;51.50
50556;DHT22;36508;52.512;13.450;2023-02-28T15:48:26;8.70;51.90
50556;DHT22;36508;52.512;13.450;2023-02-28T15:51:16;8.50;52.80
50556;DHT22;36508;52.512;13.450;2023-02-28T15:53:54;8.50;53.40
50556;DHT22;36508;52.512;13.450;2023-02-28T15:56:46;8.40;53.30
50556;DHT22;36508;52.512;13.450;2023-02-28T15:59:20;8.30;53.40
50556;DHT22;36508;52.512;13.450;2023-02-28T16:01:46;8.30;53.40
50556;DHT22;36508;52.512;13.450;2023-02-28T16:04:16;8.30;53.90
50556;DHT22;36508;52.512;13.450;2023-02-28T16:07:04;7.90;54.00
50556;DHT22;36508;52.512;13.450;2023-02-28T16:09:32;7.90;55.00
50556;DHT22;36508;52.512;13.450;2023-02-28T16:12:02;7.90;55.30
50556;DHT22;36508;52.512;13.450;2023-02-28T16:14:29;7.70;55.00
50556;DHT22;36508;52.512;13.450;2023-02-28T16:17:06;7.70;55.00
50556;DHT22;36508;52.512;13.450;2023-02-28T16:19:34;7.60;55.50
50556;DHT22;36508;52.512;13.450;2023-02-28T16:22:01;7.40;56.00
50556;DHT22;36508;52.512;13.450;2023-02-28T16:24:27;7.40;56.30
50556;DHT22;36508;52.512;13.450;2023-02-28T16:26:55;7.40;57.00
50556;DHT22;36508;52.512;13.450;2023-02-28T16:29:33;7.40;57.10
50556;DHT22;36508;52.512;13.450;2023-02-28T16:32:04;7.30;57.40
50556;DHT22;36508;52.512;13.450;2023-02-28T16:34:31;7.20;57.60
50556;DHT22;36508;52.512;13.450;2023-02-28T16:36:57;7.10;56.90
50556;DHT22;36508;52.512;13.450;2023-02-28T16:39:24;7.10;57.80
50556;DHT22;36508;52.512;13.450;2023-02-28T16:41:50;7.00;58.00
50556;DHT22;36508;52.512;13.450;2023-02-28T16:44:32;7.00;58.30
50556;DHT22;36508;52.512;13.450;2023-02-28T16:47:03;6.90;58.60
50556;DHT22;36508;52.512;13.450;2023-02-28T16:49:30;6.80;59.30
50556;DHT22;36508;52.512;13.450;2023-02-28T16:51:56;6.70;59.30
50556;DHT22;36508;52.512;13.450;2023-02-28T16:54:22;6.70;59.90
50556;DHT22;36508;52.512;13.450;2023-02-28T16:56:48;6.70;59.70
50556;DHT22;36508;52.512;13.450;2023-02-28T16:59:22;6.60;60.30
50556;DHT22;36508;52.512;13.450;2023-02-28T17:01:49;6.50;60.80
50556;DHT22;36508;52.512;13.450;2023-02-28T17:04:15;6.40;61.30
50556;DHT22;36508;52.512;13.450;2023-02-28T17:06:43;6.30;61.50
50556;DHT22;36508;52.512;13.450;2023-02-28T17:09:22;6.30;62.30
50556;DHT22;36508;52.512;13.450;2023-02-28T17:11:49;6.20;63.20
50556;DHT22;36508;52.512;13.450;2023-02-28T17:14:21;6.20;63.20
50556;DHT22;36508;52.512;13.450;2023-02-28T17:16:48;6.20;63.50
50556;DHT22;36508;52.512;13.450;2023-02-28T17:19:35;6.10;63.70
50556;DHT22;36508;52.512;13.450;2023-02-28T17:22:07;6.00;64.00
50556;DHT22;36508;52.512;13.450;2023-02-28T17:24:37;6.00;64.40
50556;DHT22;36508;52.512;13.450;2023-02-28T17:27:04;5.90;65.00
50556;DHT22;36508;52.512;13.450;2023-02-28T17:29:33;5.90;65.90
50556;DHT22;36508;52.512;13.450;2023-02-28T17:32:02;5.80;66.20
50556;DHT22;36508;52.512;13.450;2023-02-28T17:34:28;5.70;66.80
50556;DHT22;36508;52.512;13.450;2023-02-28T17:36:53;5.70;67.70
50556;DHT22;36508;52.512;13.450;2023-02-28T17:39:20;5.70;68.00
50556;DHT22;36508;52.512;13.450;2023-02-28T17:41:52;5.70;68.30
50556;DHT22;36508;52.512;13.450;2023-02-28T17:44:22;5.80;68.90
50556;DHT22;36508;52.512;13.450;2023-02-28T17:46:49;5.80;69.20
50556;DHT22;36508;52.512;13.450;2023-02-28T17:49:17;5.70;69.70
50556;DHT22;36508;52.512;13.450;2023-02-28T17:51:45;5.60;70.60
50556;DHT22;36508;52.512;13.450;2023-02-28T17:54:12;5.70;71.00
50556;DHT22;36508;52.512;13.450;2023-02-28T17:56:39;5.60;71.70
50556;DHT22;36508;52.512;13.450;2023-02-28T17:59:06;5.60;71.60
50556;DHT22;36508;52.512;13.450;2023-02-28T18:01:34;5.60;72.00
50556;DHT22;36508;52.512;13.450;2023-02-28T18:04:03;5.60;72.30
50556;DHT22;36508;52.512;13.450;2023-02-28T18:06:37;5.40;72.20
50556;DHT22;36508;52.512;13.450;2023-02-28T18:09:32;5.30;73.40
50556;DHT22;36508;52.512;13.450;2023-02-28T18:12:04;5.30;73.50
50556;DHT22;36508;52.512;13.450;2023-02-28T18:14:32;5.30;74.10
50556;DHT22;36508;52.512;13.450;2023-02-28T18:16:58;5.20;74.70
50556;DHT22;36508;52.512;13.450;2023-02-28T18:19:24;5.10;75.70
50556;DHT22;36508;52.512;13.450;2023-02-28T18:21:53;5.10;75.80
50556;DHT22;36508;52.512;13.450;2023-02-28T18:24:23;5.00;76.80
50556;DHT22;36508;52.512;13.450;2023-02-28T18:26:50;5.00;77.80
50556;DHT22;36508;52.512;13.450;2023-02-28T18:29:22;5.10;78.00
50556;DHT22;36508;52.512;13.450;2023-02-28T18:31:51;5.00;78.80
50556;DHT22;36508;52.512;13.450;2023-02-28T18:34:17;5.00;79.30
50556;DHT22;36508;52.512;13.450;2023-02-28T18:36:47;5.00;79.70
50556;DHT22;36508;52.512;13.450;2023-02-28T18:39:16;4.90;80.40
50556;DHT22;36508;52.512;13.450;2023-02-28T18:41:42;4.90;80.80
50556;DHT22;36508;52.512;13.450;2023-02-28T18:44:14;4.80;82.20
50556;DHT22;36508;52.512;13.450;2023-02-28T18:46:41;4.80;83.60
50556;DHT22;36508;52.512;13.450;2023-02-28T18:49:10;4.80;83.20
50556;DHT22;36508;52.512;13.450;2023-02-28T18:51:42;4.70;83.90
50556;DHT22;36508;52.512;13.450;2023-02-28T18:54:13;4.60;85.00
50556;DHT22;36508;52.512;13.450;2023-02-28T18:56:42;4.60;85.80
50556;DHT22;36508;52.512;13.450;2023-02-28T18:59:08;4.70;86.10
50556;DHT22;36508;52.512;13.450;2023-02-28T19:01:35;4.60;86.80